<?xml version='1.0' encoding='UTF-8'?><gpx version="1.1" creator="JPX - https://github.com/jenetics/jpx" xmlns="http://www.topografix.com/GPX/1/1"><trk><trkseg><trkpt lat="45.908815395939484" lon="12.147625312363095"><ele>149.0</ele><time>2026-03-28T16:52:46Z</time></trkpt><trkpt lat="45.90873508369054" lon="12.147604588197856"><ele>149.0</ele><time>2026-03-28T16:52:47Z</time></trkpt><trkpt lat="45.90867218504837" lon="12.14761547787315"><ele>149.0</ele><time>2026-03-28T16:52:48Z</time></trkpt><trkpt lat="45.908580715680266" lon="12.147620082048762"><ele>149.0</ele><time>2026-03-28T16:52:49Z</time></trkpt><trkpt lat="45.90848506879935" lon="12.147645232727902"><ele>149.0</ele><time>2026-03-28T16:52:50Z</time></trkpt><trkpt lat="45.90837353725532" lon="12.147676016262054"><ele>149.0</ele><time>2026-03-28T16:52:51Z</time></trkpt><trkpt lat="45.90825301213067" lon="12.147711838624906"><ele>148.5</ele><time>2026-03-28T16:52:52Z</time></trkpt><trkpt lat="45.9081355578371" lon="12.147754765173245"><ele>148.0</ele><time>2026-03-28T16:52:53Z</time></trkpt><trkpt lat="45.90800719723652" lon="12.14785165295342"><ele>147.5</ele><time>2026-03-28T16:52:54Z</time></trkpt><trkpt lat="45.90787716057828" lon="12.147939369811446"><ele>147.0</ele><time>2026-03-28T16:52:55Z</time></trkpt><trkpt lat="45.90774293954947" lon="12.14803370298502"><ele>147.0</ele><time>2026-03-28T16:52:56Z</time></trkpt><trkpt lat="45.907603984420135" lon="12.148125593398296"><ele>147.0</ele><time>2026-03-28T16:52:57Z</time></trkpt><trkpt lat="45.90746573945136" lon="12.14822749200697"><ele>147.0</ele><time>2026-03-28T16:52:58Z</time></trkpt><trkpt lat="45.90732776992522" lon="12.148337106587327"><ele>147.0</ele><time>2026-03-28T16:52:59Z</time></trkpt><trkpt lat="45.907187743462224" lon="12.148444726506625"><ele>147.0</ele><time>2026-03-28T16:53:00Z</time></trkpt><trkpt lat="45.90704333345715" lon="12.148547665957295"><ele>147.0</ele><time>2026-03-28T16:53:01Z</time></trkpt><trkpt lat="45.906901807561766" lon="12.1486482917579"><ele>147.0</ele><time>2026-03-28T16:53:02Z</time></trkpt><trkpt lat="45.906755658478474" lon="12.148757535907508"><ele>147.0</ele><time>2026-03-28T16:53:03Z</time></trkpt><trkpt lat="45.906609478678334" lon="12.148858537830883"><ele>147.0</ele><time>2026-03-28T16:53:04Z</time></trkpt><trkpt lat="45.906457574970716" lon="12.148961338774178"><ele>146.33333333333334</ele><time>2026-03-28T16:53:05Z</time></trkpt><trkpt lat="45.90631074482553" lon="12.149084673159942"><ele>145.66666666666669</ele><time>2026-03-28T16:53:06Z</time></trkpt><trkpt lat="45.906164719378324" lon="12.149195938234495"><ele>145.0</ele><time>2026-03-28T16:53:07Z</time></trkpt><trkpt lat="45.906017104198654" lon="12.149306538484254"><ele>144.66666666666669</ele><time>2026-03-28T16:53:08Z</time></trkpt><trkpt lat="45.90587054672855" lon="12.1494118103392"><ele>144.33333333333334</ele><time>2026-03-28T16:53:09Z</time></trkpt><trkpt lat="45.905719413999584" lon="12.149521052211396"><ele>144.0</ele><time>2026-03-28T16:53:10Z</time></trkpt><trkpt lat="45.90557095724593" lon="12.149631214438207"><ele>144.0</ele><time>2026-03-28T16:53:11Z</time></trkpt><trkpt lat="45.905420817238316" lon="12.149743446723551"><ele>144.0</ele><time>2026-03-28T16:53:12Z</time></trkpt><trkpt lat="45.90526975518057" lon="12.149855329150267"><ele>144.0</ele><time>2026-03-28T16:53:13Z</time></trkpt><trkpt lat="45.90511997366701" lon="12.149967544563193"><ele>143.33333333333334</ele><time>2026-03-28T16:53:14Z</time></trkpt><trkpt lat="45.90496823658348" lon="12.150078570241364"><ele>142.66666666666669</ele><time>2026-03-28T16:53:15Z</time></trkpt><trkpt lat="45.90481850844196" lon="12.150190897315316"><ele>142.0</ele><time>2026-03-28T16:53:16Z</time></trkpt><trkpt lat="45.90466716109974" lon="12.150302080316429"><ele>142.0</ele><time>2026-03-28T16:53:17Z</time></trkpt><trkpt lat="45.90451613562448" lon="12.150417463455524"><ele>142.0</ele><time>2026-03-28T16:53:18Z</time></trkpt><trkpt lat="45.90436337328989" lon="12.150533446853194"><ele>142.0</ele><time>2026-03-28T16:53:19Z</time></trkpt><trkpt lat="45.904210954994014" lon="12.150644098826884"><ele>142.25</ele><time>2026-03-28T16:53:20Z</time></trkpt><trkpt lat="45.90407780035163" lon="12.150740715570706"><ele>142.5</ele><time>2026-03-28T16:53:21Z</time></trkpt><trkpt lat="45.90395858733882" lon="12.150833168580606"><ele>142.75</ele><time>2026-03-28T16:53:22Z</time></trkpt><trkpt lat="45.90384776118558" lon="12.150912356993302"><ele>143.0</ele><time>2026-03-28T16:53:23Z</time></trkpt><trkpt lat="45.90374577274962" lon="12.15098776276684"><ele>143.0</ele><time>2026-03-28T16:53:24Z</time></trkpt><trkpt lat="45.90365596773992" lon="12.151061214431028"><ele>143.0</ele><time>2026-03-28T16:53:25Z</time></trkpt><trkpt lat="45.903571824727926" lon="12.15112616974559"><ele>143.0</ele><time>2026-03-28T16:53:26Z</time></trkpt><trkpt lat="45.90348834160679" lon="12.15118860255679"><ele>143.0</ele><time>2026-03-28T16:53:27Z</time></trkpt><trkpt lat="45.903406070056874" lon="12.151248241645959"><ele>143.0</ele><time>2026-03-28T16:53:28Z</time></trkpt><trkpt lat="45.90332830160644" lon="12.151302236154006"><ele>143.16666666666666</ele><time>2026-03-28T16:53:29Z</time></trkpt><trkpt lat="45.90325834671545" lon="12.151351574768329"><ele>143.33333333333331</ele><time>2026-03-28T16:53:30Z</time></trkpt><trkpt lat="45.90319558697452" lon="12.151401215821776"><ele>143.5</ele><time>2026-03-28T16:53:31Z</time></trkpt><trkpt lat="45.90312218589348" lon="12.1514474984475"><ele>143.66666666666666</ele><time>2026-03-28T16:53:32Z</time></trkpt><trkpt lat="45.90304391152699" lon="12.151475334190291"><ele>143.83333333333334</ele><time>2026-03-28T16:53:33Z</time></trkpt><trkpt lat="45.902956211516454" lon="12.151464191830508"><ele>144.0</ele><time>2026-03-28T16:53:34Z</time></trkpt><trkpt lat="45.90287517969385" lon="12.15142348860756"><ele>144.0</ele><time>2026-03-28T16:53:35Z</time></trkpt><trkpt lat="45.90280254830525" lon="12.151392219002666"><ele>144.0</ele><time>2026-03-28T16:53:36Z</time></trkpt><trkpt lat="45.90269937872794" lon="12.151443881811726"><ele>144.0</ele><time>2026-03-28T16:53:38Z</time></trkpt><trkpt lat="45.90264126619324" lon="12.151485086059596"><ele>144.0</ele><time>2026-03-28T16:53:40Z</time></trkpt></trkseg></trk></gpx>